sensor_id;sensor_type;location;lat;lon;timestamp;P1;durP1;ratioP1;P2;durP2;ratioP2
18320;SDS011;54904;54.350;18.664;2024-02-26T00:00:41;2.60;;;2.40;;
18320;SDS011;54904;54.350;18.664;2024-02-26T00:03:08;3.63;;;2.60;;
18320;SDS011;54904;54.350;18.664;2024-02-26T00:05:37;3.07;;;2.30;;
18320;SDS011;54904;54.350;18.664;2024-02-26T00:08:04;2.67;;;2.20;;
18320;SDS011;54904;54.350;18.664;2024-02-26T00:10:32;2.37;;;2.17;;
18320;SDS011;54904;54.350;18.664;2024-02-26T00:12:59;2.47;;;2.20;;
18320;SDS011;54904;54.350;18.664;2024-02-26T00:15:26;2.53;;;2.23;;
18320;SDS011;54904;54.350;18.664;2024-02-26T00:17:54;3.47;;;2.50;;
18320;SDS011;54904;54.350;18.664;2024-02-26T00:20:21;3.13;;;2.70;;
18320;SDS011;54904;54.350;18.664;2024-02-26T00:22:49;3.87;;;2.77;;
18320;SDS011;54904;54.350;18.664;2024-02-26T00:25:17;3.80;;;2.53;;
18320;SDS011;54904;54.350;18.664;2024-02-26T00:27:44;3.10;;;2.67;;
18320;SDS011;54904;54.350;18.664;2024-02-26T00:30:11;5.40;;;3.70;;
18320;SDS011;54904;54.350;18.664;2024-02-26T00:32:38;6.07;;;3.97;;
18320;SDS011;54904;54.350;18.664;2024-02-26T00:35:06;5.57;;;3.80;;
18320;SDS011;54904;54.350;18.664;2024-02-26T00:37:34;6.60;;;4.10;;
18320;SDS011;54904;54.350;18.664;2024-02-26T00:40:03;5.43;;;3.70;;
18320;SDS011;54904;54.350;18.664;2024-02-26T00:42:31;4.57;;;3.40;;
18320;SDS011;54904;54.350;18.664;2024-02-26T00:44:58;3.27;;;2.87;;
18320;SDS011;54904;54.350;18.664;2024-02-26T00:47:25;4.90;;;3.60;;
18320;SDS011;54904;54.350;18.664;2024-02-26T00:49:53;5.43;;;3.80;;
18320;SDS011;54904;54.350;18.664;2024-02-26T00:52:20;4.90;;;3.30;;
18320;SDS011;54904;54.350;18.664;2024-02-26T00:54:47;5.63;;;3.53;;
18320;SDS011;54904;54.350;18.664;2024-02-26T00:57:15;4.00;;;3.43;;
18320;SDS011;54904;54.350;18.664;2024-02-26T00:59:42;5.27;;;3.90;;
18320;SDS011;54904;54.350;18.664;2024-02-26T01:02:09;5.93;;;3.50;;
18320;SDS011;54904;54.350;18.664;2024-02-26T01:04:36;5.70;;;3.77;;
18320;SDS011;54904;54.350;18.664;2024-02-26T01:07:03;4.10;;;3.30;;
18320;SDS011;54904;54.350;18.664;2024-02-26T01:09:30;5.50;;;3.30;;
18320;SDS011;54904;54.350;18.664;2024-02-26T01:11:57;6.43;;;3.93;;
18320;SDS011;54904;54.350;18.664;2024-02-26T01:14:26;8.37;;;4.13;;
18320;SDS011;54904;54.350;18.664;2024-02-26T01:16:53;7.60;;;4.17;;
18320;SDS011;54904;54.350;18.664;2024-02-26T01:19:20;7.40;;;4.63;;
18320;SDS011;54904;54.350;18.664;2024-02-26T01:21:50;5.47;;;3.93;;
18320;SDS011;54904;54.350;18.664;2024-02-26T01:24:17;6.33;;;3.87;;
18320;SDS011;54904;54.350;18.664;2024-02-26T01:26:44;5.57;;;3.63;;
18320;SDS011;54904;54.350;18.664;2024-02-26T01:29:11;4.40;;;3.30;;
18320;SDS011;54904;54.350;18.664;2024-02-26T01:31:39;4.43;;;3.33;;
18320;SDS011;54904;54.350;18.664;2024-02-26T01:34:06;5.63;;;3.33;;
18320;SDS011;54904;54.350;18.664;2024-02-26T01:36:33;5.07;;;3.30;;
18320;SDS011;54904;54.350;18.664;2024-02-26T01:39:01;6.20;;;3.63;;
18320;SDS011;54904;54.350;18.664;2024-02-26T01:41:28;4.67;;;3.70;;
18320;SDS011;54904;54.350;18.664;2024-02-26T01:43:55;5.43;;;3.73;;
18320;SDS011;54904;54.350;18.664;2024-02-26T01:46:22;6.23;;;3.93;;
18320;SDS011;54904;54.350;18.664;2024-02-26T01:48:51;5.60;;;3.73;;
18320;SDS011;54904;54.350;18.664;2024-02-26T01:51:18;5.57;;;3.83;;
18320;SDS011;54904;54.350;18.664;2024-02-26T01:53:46;6.27;;;4.07;;
18320;SDS011;54904;54.350;18.664;2024-02-26T01:56:13;5.07;;;3.80;;
18320;SDS011;54904;54.350;18.664;2024-02-26T01:58:43;6.03;;;3.87;;
18320;SDS011;54904;54.350;18.664;2024-02-26T02:09:46;5.27;;;3.70;;
18320;SDS011;54904;54.350;18.664;2024-02-26T02:12:13;5.23;;;3.70;;
18320;SDS011;54904;54.350;18.664;2024-02-26T02:14:41;5.30;;;3.57;;
18320;SDS011;54904;54.350;18.664;2024-02-26T02:17:09;5.03;;;3.37;;
18320;SDS011;54904;54.350;18.664;2024-02-26T02:19:37;5.10;;;3.70;;
18320;SDS011;54904;54.350;18.664;2024-02-26T02:22:05;5.13;;;3.70;;
18320;SDS011;54904;54.350;18.664;2024-02-26T02:24:32;4.37;;;3.57;;
18320;SDS011;54904;54.350;18.664;2024-02-26T02:26:59;5.60;;;3.43;;
18320;SDS011;54904;54.350;18.664;2024-02-26T02:29:27;3.83;;;3.43;;
18320;SDS011;54904;54.350;18.664;2024-02-26T02:31:54;5.77;;;3.60;;
18320;SDS011;54904;54.350;18.664;2024-02-26T02:34:21;5.50;;;4.00;;
18320;SDS011;54904;54.350;18.664;2024-02-26T02:36:49;4.40;;;3.30;;
18320;SDS011;54904;54.350;18.664;2024-02-26T02:39:20;4.43;;;3.47;;
18320;SDS011;54904;54.350;18.664;2024-02-26T02:41:47;3.93;;;3.40;;
18320;SDS011;54904;54.350;18.664;2024-02-26T02:44:14;6.00;;;4.00;;
18320;SDS011;54904;54.350;18.664;2024-02-26T02:46:41;5.40;;;3.70;;
18320;SDS011;54904;54.350;18.664;2024-02-26T02:49:09;6.17;;;3.87;;
18320;SDS011;54904;54.350;18.664;2024-02-26T02:51:36;4.30;;;3.53;;
18320;SDS011;54904;54.350;18.664;2024-02-26T02:54:04;4.07;;;3.53;;
18320;SDS011;54904;54.350;18.664;2024-02-26T02:56:32;6.97;;;4.33;;
18320;SDS011;54904;54.350;18.664;2024-02-26T02:58:59;4.57;;;3.10;;
18320;SDS011;54904;54.350;18.664;2024-02-26T03:01:26;5.53;;;3.90;;
18320;SDS011;54904;54.350;18.664;2024-02-26T03:03:53;6.10;;;3.87;;
18320;SDS011;54904;54.350;18.664;2024-02-26T03:06:20;6.43;;;3.80;;
18320;SDS011;54904;54.350;18.664;2024-02-26T03:08:48;5.77;;;3.83;;
18320;SDS011;54904;54.350;18.664;2024-02-26T03:11:15;5.13;;;3.53;;
18320;SDS011;54904;54.350;18.664;2024-02-26T03:13:44;3.80;;;3.20;;
18320;SDS011;54904;54.350;18.664;2024-02-26T03:16:11;5.00;;;3.80;;
18320;SDS011;54904;54.350;18.664;2024-02-26T03:18:38;6.17;;;3.50;;
18320;SDS011;54904;54.350;18.664;2024-02-26T03:21:05;5.47;;;3.83;;
18320;SDS011;54904;54.350;18.664;2024-02-26T03:23:33;6.37;;;3.93;;
18320;SDS011;54904;54.350;18.664;2024-02-26T03:26:01;4.83;;;3.40;;
18320;SDS011;54904;54.350;18.664;2024-02-26T03:28:29;5.23;;;3.77;;
18320;SDS011;54904;54.350;18.664;2024-02-26T03:30:59;5.23;;;3.60;;
18320;SDS011;54904;54.350;18.664;2024-02-26T03:33:27;5.43;;;3.63;;
18320;SDS011;54904;54.350;18.664;2024-02-26T03:35:54;8.10;;;4.73;;
18320;SDS011;54904;54.350;18.664;2024-02-26T03:38:21;8.70;;;5.03;;
18320;SDS011;54904;54.350;18.664;2024-02-26T03:40:48;6.93;;;4.47;;
18320;SDS011;54904;54.350;18.664;2024-02-26T03:43:16;6.90;;;4.13;;
18320;SDS011;54904;54.350;18.664;2024-02-26T03:45:43;7.97;;;4.43;;
18320;SDS011;54904;54.350;18.664;2024-02-26T03:48:12;5.10;;;4.10;;
18320;SDS011;54904;54.350;18.664;2024-02-26T03:50:39;4.77;;;3.70;;
18320;SDS011;54904;54.350;18.664;2024-02-26T03:53:06;6.60;;;3.80;;
18320;SDS011;54904;54.350;18.664;2024-02-26T03:55:34;7.10;;;4.53;;
18320;SDS011;54904;54.350;18.664;2024-02-26T03:58:01;6.23;;;4.07;;
18320;SDS011;54904;54.350;18.664;2024-02-26T04:00:29;6.83;;;4.23;;
18320;SDS011;54904;54.350;18.664;2024-02-26T04:02:56;5.63;;;3.90;;
18320;SDS011;54904;54.350;18.664;2024-02-26T04:05:24;7.53;;;4.63;;
18320;SDS011;54904;54.350;18.664;2024-02-26T04:07:52;4.90;;;3.73;;
18320;SDS011;54904;54.350;18.664;2024-02-26T04:10:19;6.77;;;4.43;;
18320;SDS011;54904;54.350;18.664;2024-02-26T04:12:46;8.93;;;4.63;;
18320;SDS011;54904;54.350;18.664;2024-02-26T04:15:13;7.73;;;4.80;;
18320;SDS011;54904;54.350;18.664;2024-02-26T04:17:40;8.60;;;5.17;;
18320;SDS011;54904;54.350;18.664;2024-02-26T04:20:12;9.20;;;5.60;;
18320;SDS011;54904;54.350;18.664;2024-02-26T04:22:42;8.13;;;5.10;;
18320;SDS011;54904;54.350;18.664;2024-02-26T04:25:09;10.73;;;5.83;;
18320;SDS011;54904;54.350;18.664;2024-02-26T04:27:36;11.67;;;6.63;;
18320;SDS011;54904;54.350;18.664;2024-02-26T04:30:04;11.97;;;6.43;;
18320;SDS011;54904;54.350;18.664;2024-02-26T04:32:32;13.10;;;7.03;;
18320;SDS011;54904;54.350;18.664;2024-02-26T04:34:59;15.37;;;7.33;;
18320;SDS011;54904;54.350;18.664;2024-02-26T04:37:26;19.33;;;9.40;;
18320;SDS011;54904;54.350;18.664;2024-02-26T04:39:58;28.73;;;11.23;;
18320;SDS011;54904;54.350;18.664;2024-02-26T04:42:26;23.10;;;10.27;;
18320;SDS011;54904;54.350;18.664;2024-02-26T04:44:54;37.53;;;14.97;;
18320;SDS011;54904;54.350;18.664;2024-02-26T04:47:21;47.47;;;19.03;;
18320;SDS011;54904;54.350;18.664;2024-02-26T04:49:49;60.07;;;22.73;;
18320;SDS011;54904;54.350;18.664;2024-02-26T04:52:16;53.07;;;21.87;;
18320;SDS011;54904;54.350;18.664;2024-02-26T04:54:43;44.47;;;19.20;;
18320;SDS011;54904;54.350;18.664;2024-02-26T04:57:12;39.93;;;16.17;;
18320;SDS011;54904;54.350;18.664;2024-02-26T04:59:39;34.67;;;15.67;;
18320;SDS011;54904;54.350;18.664;2024-02-26T05:02:07;29.10;;;12.90;;
18320;SDS011;54904;54.350;18.664;2024-02-26T05:04:35;22.37;;;11.23;;
18320;SDS011;54904;54.350;18.664;2024-02-26T05:07:02;20.83;;;10.20;;
18320;SDS011;54904;54.350;18.664;2024-02-26T05:09:29;23.23;;;9.87;;
18320;SDS011;54904;54.350;18.664;2024-02-26T05:11:57;23.30;;;10.87;;
18320;SDS011;54904;54.350;18.664;2024-02-26T05:14:25;17.03;;;8.57;;
18320;SDS011;54904;54.350;18.664;2024-02-26T05:16:52;21.63;;;8.63;;
18320;SDS011;54904;54.350;18.664;2024-02-26T05:19:20;16.83;;;7.50;;
18320;SDS011;54904;54.350;18.664;2024-02-26T05:21:47;28.43;;;12.97;;
18320;SDS011;54904;54.350;18.664;2024-02-26T05:24:15;23.83;;;10.83;;
18320;SDS011;54904;54.350;18.664;2024-02-26T05:26:42;23.73;;;9.87;;
18320;SDS011;54904;54.350;18.664;2024-02-26T05:29:09;19.17;;;8.83;;
18320;SDS011;54904;54.350;18.664;2024-02-26T05:31:38;23.50;;;10.17;;
18320;SDS011;54904;54.350;18.664;2024-02-26T05:34:05;19.07;;;9.23;;
18320;SDS011;54904;54.350;18.664;2024-02-26T05:36:32;19.73;;;9.03;;
18320;SDS011;54904;54.350;18.664;2024-02-26T05:39:00;15.23;;;7.03;;
18320;SDS011;54904;54.350;18.664;2024-02-26T05:41:29;15.00;;;6.83;;
18320;SDS011;54904;54.350;18.664;2024-02-26T05:43:56;12.73;;;6.80;;
18320;SDS011;54904;54.350;18.664;2024-02-26T05:46:24;12.23;;;6.77;;
18320;SDS011;54904;54.350;18.664;2024-02-26T05:48:53;17.90;;;8.10;;
18320;SDS011;54904;54.350;18.664;2024-02-26T05:51:20;15.87;;;7.97;;
18320;SDS011;54904;54.350;18.664;2024-02-26T05:53:47;14.93;;;7.50;;
18320;SDS011;54904;54.350;18.664;2024-02-26T05:56:19;11.13;;;5.60;;
18320;SDS011;54904;54.350;18.664;2024-02-26T05:58:47;10.37;;;6.10;;
18320;SDS011;54904;54.350;18.664;2024-02-26T06:01:15;11.70;;;6.83;;
18320;SDS011;54904;54.350;18.664;2024-02-26T06:03:42;12.00;;;6.37;;
18320;SDS011;54904;54.350;18.664;2024-02-26T06:06:11;12.40;;;6.40;;
18320;SDS011;54904;54.350;18.664;2024-02-26T06:08:39;17.37;;;8.07;;
18320;SDS011;54904;54.350;18.664;2024-02-26T06:11:06;17.20;;;8.57;;
18320;SDS011;54904;54.350;18.664;2024-02-26T06:13:34;20.00;;;7.60;;
18320;SDS011;54904;54.350;18.664;2024-02-26T06:16:01;15.13;;;7.07;;
18320;SDS011;54904;54.350;18.664;2024-02-26T06:18:28;10.80;;;6.23;;
18320;SDS011;54904;54.350;18.664;2024-02-26T06:20:55;11.23;;;5.77;;
18320;SDS011;54904;54.350;18.664;2024-02-26T06:23:24;11.60;;;6.90;;
18320;SDS011;54904;54.350;18.664;2024-02-26T06:25:51;14.03;;;6.67;;
18320;SDS011;54904;54.350;18.664;2024-02-26T06:28:18;10.03;;;5.90;;
18320;SDS011;54904;54.350;18.664;2024-02-26T06:30:45;11.30;;;5.93;;
18320;SDS011;54904;54.350;18.664;2024-02-26T06:33:13;10.87;;;6.00;;
18320;SDS011;54904;54.350;18.664;2024-02-26T06:35:40;13.23;;;6.90;;
18320;SDS011;54904;54.350;18.664;2024-02-26T06:38:07;12.17;;;6.27;;
18320;SDS011;54904;54.350;18.664;2024-02-26T06:40:38;12.63;;;6.43;;
18320;SDS011;54904;54.350;18.664;2024-02-26T06:43:05;11.87;;;5.97;;
18320;SDS011;54904;54.350;18.664;2024-02-26T06:45:32;14.97;;;6.37;;
18320;SDS011;54904;54.350;18.664;2024-02-26T06:47:59;11.27;;;6.40;;
18320;SDS011;54904;54.350;18.664;2024-02-26T06:50:27;12.97;;;7.00;;
18320;SDS011;54904;54.350;18.664;2024-02-26T06:52:54;15.10;;;7.30;;
18320;SDS011;54904;54.350;18.664;2024-02-26T06:55:21;12.83;;;6.90;;
18320;SDS011;54904;54.350;18.664;2024-02-26T06:57:50;11.10;;;6.27;;
18320;SDS011;54904;54.350;18.664;2024-02-26T07:00:17;9.40;;;5.93;;
18320;SDS011;54904;54.350;18.664;2024-02-26T07:02:45;8.53;;;5.60;;
18320;SDS011;54904;54.350;18.664;2024-02-26T07:05:12;13.67;;;6.90;;
18320;SDS011;54904;54.350;18.664;2024-02-26T07:07:39;11.63;;;6.40;;
18320;SDS011;54904;54.350;18.664;2024-02-26T07:10:06;10.60;;;6.13;;
18320;SDS011;54904;54.350;18.664;2024-02-26T07:12:34;10.93;;;6.10;;
18320;SDS011;54904;54.350;18.664;2024-02-26T07:15:03;13.13;;;7.10;;
18320;SDS011;54904;54.350;18.664;2024-02-26T07:17:33;16.03;;;8.60;;
18320;SDS011;54904;54.350;18.664;2024-02-26T07:20:00;12.63;;;7.43;;
18320;SDS011;54904;54.350;18.664;2024-02-26T07:22:29;14.10;;;7.23;;
18320;SDS011;54904;54.350;18.664;2024-02-26T07:24:56;10.77;;;6.70;;
18320;SDS011;54904;54.350;18.664;2024-02-26T07:27:24;12.87;;;7.07;;
18320;SDS011;54904;54.350;18.664;2024-02-26T07:29:51;13.33;;;7.23;;
18320;SDS011;54904;54.350;18.664;2024-02-26T07:32:19;11.30;;;7.17;;
18320;SDS011;54904;54.350;18.664;2024-02-26T07:34:47;16.50;;;7.60;;
18320;SDS011;54904;54.350;18.664;2024-02-26T07:37:15;14.00;;;8.47;;
18320;SDS011;54904;54.350;18.664;2024-02-26T07:39:42;16.43;;;7.67;;
18320;SDS011;54904;54.350;18.664;2024-02-26T07:42:09;17.07;;;9.37;;
18320;SDS011;54904;54.350;18.664;2024-02-26T07:44:36;17.97;;;10.27;;
18320;SDS011;54904;54.350;18.664;2024-02-26T07:47:04;23.17;;;12.80;;
18320;SDS011;54904;54.350;18.664;2024-02-26T07:49:32;57.43;;;26.67;;
18320;SDS011;54904;54.350;18.664;2024-02-26T07:51:59;59.47;;;28.63;;
18320;SDS011;54904;54.350;18.664;2024-02-26T07:54:26;61.87;;;29.03;;
18320;SDS011;54904;54.350;18.664;2024-02-26T07:56:53;49.53;;;24.00;;
18320;SDS011;54904;54.350;18.664;2024-02-26T07:59:20;46.83;;;24.97;;
18320;SDS011;54904;54.350;18.664;2024-02-26T08:01:49;40.70;;;21.73;;
18320;SDS011;54904;54.350;18.664;2024-02-26T08:04:17;47.80;;;23.23;;
18320;SDS011;54904;54.350;18.664;2024-02-26T08:06:45;38.97;;;19.93;;
18320;SDS011;54904;54.350;18.664;2024-02-26T08:09:13;30.17;;;15.87;;
18320;SDS011;54904;54.350;18.664;2024-02-26T08:11:40;25.87;;;14.53;;
18320;SDS011;54904;54.350;18.664;2024-02-26T08:14:07;22.27;;;12.90;;
18320;SDS011;54904;54.350;18.664;2024-02-26T08:16:34;24.60;;;12.90;;
18320;SDS011;54904;54.350;18.664;2024-02-26T08:19:01;17.30;;;9.47;;
18320;SDS011;54904;54.350;18.664;2024-02-26T08:21:28;19.27;;;10.47;;
18320;SDS011;54904;54.350;18.664;2024-02-26T08:23:57;24.67;;;13.33;;
18320;SDS011;54904;54.350;18.664;2024-02-26T08:26:24;25.27;;;12.87;;
18320;SDS011;54904;54.350;18.664;2024-02-26T08:28:51;22.63;;;11.93;;
18320;SDS011;54904;54.350;18.664;2024-02-26T08:31:21;22.10;;;12.63;;
18320;SDS011;54904;54.350;18.664;2024-02-26T08:33:48;19.23;;;11.80;;
18320;SDS011;54904;54.350;18.664;2024-02-26T08:36:16;18.60;;;10.93;;
18320;SDS011;54904;54.350;18.664;2024-02-26T08:38:46;18.10;;;10.17;;
18320;SDS011;54904;54.350;18.664;2024-02-26T08:41:14;16.03;;;9.80;;
18320;SDS011;54904;54.350;18.664;2024-02-26T08:43:41;19.50;;;11.10;;
18320;SDS011;54904;54.350;18.664;2024-02-26T08:46:09;12.13;;;8.00;;
18320;SDS011;54904;54.350;18.664;2024-02-26T08:48:36;12.47;;;7.77;;
18320;SDS011;54904;54.350;18.664;2024-02-26T08:51:04;11.33;;;7.20;;
18320;SDS011;54904;54.350;18.664;2024-02-26T08:53:32;13.73;;;7.33;;
18320;SDS011;54904;54.350;18.664;2024-02-26T08:56:00;13.53;;;7.27;;
18320;SDS011;54904;54.350;18.664;2024-02-26T08:58:28;14.67;;;7.57;;
18320;SDS011;54904;54.350;18.664;2024-02-26T09:00:56;11.87;;;8.20;;
18320;SDS011;54904;54.350;18.664;2024-02-26T09:03:23;12.63;;;8.47;;
18320;SDS011;54904;54.350;18.664;2024-02-26T09:05:51;15.10;;;9.80;;
18320;SDS011;54904;54.350;18.664;2024-02-26T09:08:18;15.73;;;8.93;;
18320;SDS011;54904;54.350;18.664;2024-02-26T09:10:47;13.00;;;7.77;;
18320;SDS011;54904;54.350;18.664;2024-02-26T09:13:14;12.40;;;8.00;;
18320;SDS011;54904;54.350;18.664;2024-02-26T09:15:43;18.10;;;9.40;;
18320;SDS011;54904;54.350;18.664;2024-02-26T09:18:10;18.63;;;10.30;;
18320;SDS011;54904;54.350;18.664;2024-02-26T09:20:37;18.00;;;11.03;;
18320;SDS011;54904;54.350;18.664;2024-02-26T09:23:04;16.50;;;10.27;;
18320;SDS011;54904;54.350;18.664;2024-02-26T09:25:32;21.00;;;11.80;;
18320;SDS011;54904;54.350;18.664;2024-02-26T09:27:59;23.03;;;12.47;;
18320;SDS011;54904;54.350;18.664;2024-02-26T09:30:27;18.67;;;11.63;;
18320;SDS011;54904;54.350;18.664;2024-02-26T09:32:55;21.37;;;11.90;;
18320;SDS011;54904;54.350;18.664;2024-02-26T09:35:22;19.50;;;11.20;;
18320;SDS011;54904;54.350;18.664;2024-02-26T09:37:49;17.60;;;9.77;;
18320;SDS011;54904;54.350;18.664;2024-02-26T09:40:17;18.27;;;9.77;;
18320;SDS011;54904;54.350;18.664;2024-02-26T09:42:44;14.90;;;9.03;;
18320;SDS011;54904;54.350;18.664;2024-02-26T09:45:12;13.73;;;8.80;;
18320;SDS011;54904;54.350;18.664;2024-02-26T09:47:45;16.90;;;10.37;;
18320;SDS011;54904;54.350;18.664;2024-02-26T09:50:16;15.70;;;9.57;;
18320;SDS011;54904;54.350;18.664;2024-02-26T09:52:47;13.90;;;8.83;;
18320;SDS011;54904;54.350;18.664;2024-02-26T09:55:15;9.63;;;6.33;;
18320;SDS011;54904;54.350;18.664;2024-02-26T09:57:44;10.17;;;6.77;;
18320;SDS011;54904;54.350;18.664;2024-02-26T10:00:14;13.20;;;8.10;;
18320;SDS011;54904;54.350;18.664;2024-02-26T10:02:45;18.60;;;10.03;;
18320;SDS011;54904;54.350;18.664;2024-02-26T10:05:14;15.07;;;9.23;;
18320;SDS011;54904;54.350;18.664;2024-02-26T10:07:44;10.50;;;7.47;;
18320;SDS011;54904;54.350;18.664;2024-02-26T10:10:12;9.27;;;7.07;;
18320;SDS011;54904;54.350;18.664;2024-02-26T10:12:40;10.63;;;7.30;;
18320;SDS011;54904;54.350;18.664;2024-02-26T10:15:08;12.63;;;8.27;;
18320;SDS011;54904;54.350;18.664;2024-02-26T10:17:35;12.57;;;7.60;;
18320;SDS011;54904;54.350;18.664;2024-02-26T10:20:13;15.00;;;7.83;;
18320;SDS011;54904;54.350;18.664;2024-02-26T10:22:44;13.27;;;9.00;;
18320;SDS011;54904;54.350;18.664;2024-02-26T10:25:11;12.10;;;7.03;;
18320;SDS011;54904;54.350;18.664;2024-02-26T10:27:40;10.60;;;6.90;;
18320;SDS011;54904;54.350;18.664;2024-02-26T10:30:15;14.10;;;7.75;;
18320;SDS011;54904;54.350;18.664;2024-02-26T10:32:44;11.20;;;6.97;;
18320;SDS011;54904;54.350;18.664;2024-02-26T10:35:12;8.07;;;6.00;;
18320;SDS011;54904;54.350;18.664;2024-02-26T10:37:39;8.13;;;6.38;;
18320;SDS011;54904;54.350;18.664;2024-02-26T10:40:10;14.65;;;7.68;;
18320;SDS011;54904;54.350;18.664;2024-02-26T10:42:38;10.73;;;7.38;;
18320;SDS011;54904;54.350;18.664;2024-02-26T10:45:05;9.13;;;6.72;;
18320;SDS011;54904;54.350;18.664;2024-02-26T10:47:34;12.82;;;7.47;;
18320;SDS011;54904;54.350;18.664;2024-02-26T10:50:01;12.38;;;6.65;;
18320;SDS011;54904;54.350;18.664;2024-02-26T10:52:31;12.68;;;8.15;;
18320;SDS011;54904;54.350;18.664;2024-02-26T10:55:00;9.73;;;7.00;;
18320;SDS011;54904;54.350;18.664;2024-02-26T10:57:31;16.15;;;8.75;;
18320;SDS011;54904;54.350;18.664;2024-02-26T11:00:00;17.75;;;9.55;;
18320;SDS011;54904;54.350;18.664;2024-02-26T11:02:31;13.00;;;8.50;;
18320;SDS011;54904;54.350;18.664;2024-02-26T11:05:00;16.10;;;9.35;;
18320;SDS011;54904;54.350;18.664;2024-02-26T11:07:29;15.05;;;9.38;;
18320;SDS011;54904;54.350;18.664;2024-02-26T11:09:57;17.20;;;10.07;;
18320;SDS011;54904;54.350;18.664;2024-02-26T11:12:27;14.90;;;8.88;;
18320;SDS011;54904;54.350;18.664;2024-02-26T11:14:56;14.73;;;8.93;;
18320;SDS011;54904;54.350;18.664;2024-02-26T11:17:26;13.82;;;9.00;;
18320;SDS011;54904;54.350;18.664;2024-02-26T11:19:56;13.23;;;8.57;;
18320;SDS011;54904;54.350;18.664;2024-02-26T11:22:24;12.82;;;8.90;;
18320;SDS011;54904;54.350;18.664;2024-02-26T11:24:52;12.73;;;8.43;;
18320;SDS011;54904;54.350;18.664;2024-02-26T11:27:23;13.27;;;8.38;;
18320;SDS011;54904;54.350;18.664;2024-02-26T11:29:56;12.00;;;7.70;;
18320;SDS011;54904;54.350;18.664;2024-02-26T11:32:26;8.82;;;6.43;;
18320;SDS011;54904;54.350;18.664;2024-02-26T11:34:55;14.00;;;8.15;;
18320;SDS011;54904;54.350;18.664;2024-02-26T11:37:23;11.98;;;7.88;;
18320;SDS011;54904;54.350;18.664;2024-02-26T11:39:51;12.20;;;7.63;;
18320;SDS011;54904;54.350;18.664;2024-02-26T11:42:23;11.50;;;7.63;;
18320;SDS011;54904;54.350;18.664;2024-02-26T11:44:51;15.60;;;8.98;;
18320;SDS011;54904;54.350;18.664;2024-02-26T11:47:20;16.58;;;9.32;;
18320;SDS011;54904;54.350;18.664;2024-02-26T11:49:49;11.85;;;8.00;;
18320;SDS011;54904;54.350;18.664;2024-02-26T11:52:16;14.68;;;8.90;;
18320;SDS011;54904;54.350;18.664;2024-02-26T11:54:44;11.10;;;7.25;;
18320;SDS011;54904;54.350;18.664;2024-02-26T11:57:24;11.65;;;8.68;;
18320;SDS011;54904;54.350;18.664;2024-02-26T11:59:56;14.93;;;9.60;;
18320;SDS011;54904;54.350;18.664;2024-02-26T12:02:39;16.88;;;9.85;;
18320;SDS011;54904;54.350;18.664;2024-02-26T12:05:09;12.27;;;7.72;;
18320;SDS011;54904;54.350;18.664;2024-02-26T12:07:39;14.23;;;9.15;;
18320;SDS011;54904;54.350;18.664;2024-02-26T12:10:15;14.40;;;9.15;;
18320;SDS011;54904;54.350;18.664;2024-02-26T12:12:47;12.00;;;9.00;;
18320;SDS011;54904;54.350;18.664;2024-02-26T12:15:14;13.38;;;8.93;;
18320;SDS011;54904;54.350;18.664;2024-02-26T12:17:49;10.70;;;7.55;;
18320;SDS011;54904;54.350;18.664;2024-02-26T12:20:17;9.70;;;7.27;;
18320;SDS011;54904;54.350;18.664;2024-02-26T12:22:46;11.05;;;7.78;;
18320;SDS011;54904;54.350;18.664;2024-02-26T12:25:14;10.20;;;7.28;;
18320;SDS011;54904;54.350;18.664;2024-02-26T12:27:42;9.17;;;6.63;;
18320;SDS011;54904;54.350;18.664;2024-02-26T12:30:09;10.80;;;7.50;;
18320;SDS011;54904;54.350;18.664;2024-02-26T12:32:37;13.52;;;8.90;;
18320;SDS011;54904;54.350;18.664;2024-02-26T12:35:07;16.67;;;10.77;;
18320;SDS011;54904;54.350;18.664;2024-02-26T12:37:34;11.57;;;8.40;;
18320;SDS011;54904;54.350;18.664;2024-02-26T12:40:03;15.85;;;8.63;;
18320;SDS011;54904;54.350;18.664;2024-02-26T12:42:33;13.20;;;8.70;;
18320;SDS011;54904;54.350;18.664;2024-02-26T12:45:05;13.00;;;8.70;;
18320;SDS011;54904;54.350;18.664;2024-02-26T12:47:37;10.20;;;7.40;;
18320;SDS011;54904;54.350;18.664;2024-02-26T12:50:05;17.02;;;9.88;;
18320;SDS011;54904;54.350;18.664;2024-02-26T12:52:35;13.20;;;9.03;;
18320;SDS011;54904;54.350;18.664;2024-02-26T12:55:05;15.50;;;10.52;;
18320;SDS011;54904;54.350;18.664;2024-02-26T12:57:34;14.63;;;9.30;;
18320;SDS011;54904;54.350;18.664;2024-02-26T13:00:03;19.65;;;11.90;;
18320;SDS011;54904;54.350;18.664;2024-02-26T13:02:34;19.15;;;11.48;;
18320;SDS011;54904;54.350;18.664;2024-02-26T13:05:03;17.98;;;9.88;;
18320;SDS011;54904;54.350;18.664;2024-02-26T13:07:33;14.18;;;9.15;;
18320;SDS011;54904;54.350;18.664;2024-02-26T13:10:01;15.93;;;10.80;;
18320;SDS011;54904;54.350;18.664;2024-02-26T13:12:28;16.63;;;10.90;;
18320;SDS011;54904;54.350;18.664;2024-02-26T13:14:58;16.03;;;11.30;;
18320;SDS011;54904;54.350;18.664;2024-02-26T13:17:26;15.85;;;10.52;;
18320;SDS011;54904;54.350;18.664;2024-02-26T13:19:53;13.85;;;9.35;;
18320;SDS011;54904;54.350;18.664;2024-02-26T13:22:20;11.98;;;8.50;;
18320;SDS011;54904;54.350;18.664;2024-02-26T13:24:56;14.45;;;9.85;;
18320;SDS011;54904;54.350;18.664;2024-02-26T13:27:23;12.18;;;8.40;;
18320;SDS011;54904;54.350;18.664;2024-02-26T13:30:01;10.45;;;7.28;;
18320;SDS011;54904;54.350;18.664;2024-02-26T13:32:31;15.88;;;10.23;;
18320;SDS011;54904;54.350;18.664;2024-02-26T13:35:07;18.98;;;11.73;;
18320;SDS011;54904;54.350;18.664;2024-02-26T13:37:35;22.42;;;13.38;;
18320;SDS011;54904;54.350;18.664;2024-02-26T13:40:06;21.03;;;13.33;;
18320;SDS011;54904;54.350;18.664;2024-02-26T13:42:35;25.37;;;15.00;;
18320;SDS011;54904;54.350;18.664;2024-02-26T13:45:03;21.10;;;12.57;;
18320;SDS011;54904;54.350;18.664;2024-02-26T13:47:31;23.97;;;14.00;;
18320;SDS011;54904;54.350;18.664;2024-02-26T13:49:58;21.00;;;11.90;;
18320;SDS011;54904;54.350;18.664;2024-02-26T13:52:26;13.83;;;9.87;;
18320;SDS011;54904;54.350;18.664;2024-02-26T13:54:53;14.33;;;8.83;;
18320;SDS011;54904;54.350;18.664;2024-02-26T13:57:22;14.93;;;9.50;;
18320;SDS011;54904;54.350;18.664;2024-02-26T13:59:49;12.93;;;8.43;;
18320;SDS011;54904;54.350;18.664;2024-02-26T14:02:17;13.77;;;7.13;;
18320;SDS011;54904;54.350;18.664;2024-02-26T14:04:44;10.43;;;7.10;;
18320;SDS011;54904;54.350;18.664;2024-02-26T14:07:11;7.67;;;6.13;;
18320;SDS011;54904;54.350;18.664;2024-02-26T14:09:38;8.53;;;6.43;;
18320;SDS011;54904;54.350;18.664;2024-02-26T14:12:06;9.07;;;6.27;;
18320;SDS011;54904;54.350;18.664;2024-02-26T14:14:34;8.20;;;6.07;;
18320;SDS011;54904;54.350;18.664;2024-02-26T14:17:04;9.97;;;6.63;;
18320;SDS011;54904;54.350;18.664;2024-02-26T14:19:31;10.07;;;6.57;;
18320;SDS011;54904;54.350;18.664;2024-02-26T14:21:58;8.90;;;6.27;;
18320;SDS011;54904;54.350;18.664;2024-02-26T14:24:25;7.83;;;6.00;;
18320;SDS011;54904;54.350;18.664;2024-02-26T14:26:52;5.93;;;5.13;;
18320;SDS011;54904;54.350;18.664;2024-02-26T14:29:20;8.07;;;5.27;;
18320;SDS011;54904;54.350;18.664;2024-02-26T14:31:48;10.33;;;6.83;;
18320;SDS011;54904;54.350;18.664;2024-02-26T14:34:15;9.03;;;6.50;;
18320;SDS011;54904;54.350;18.664;2024-02-26T14:36:44;5.30;;;4.80;;